Terminal Aerodrome Forecast
Issued by NWS

Home | Current Version | Previous Version | Text Only | Print | Product List | Glossary Off
Versions: 1 2 3 4 5 6 7 8 9 10 11 12 13 14 15 16 17 18 19 20 21 22 23 24 25 26 27 28 29 30 31 32 33

000
FTUS43 KLOT 251730
TAFDPA
TAF
KDPA 251730Z 2518/2618 07011G17KT 5SM -RA BR SCT010 OVC015
      TEMPO 2518/2521 3SM RA OVC010
     FM252330 06010G16KT P6SM SCT020 OVC035
     FM260100 04010KT P6SM BKN050
     FM260500 03007KT P6SM SKC
     FM261400 02011KT P6SM SKC
     FM261700 03012G18KT P6SM SKC=

USA.gov is the U.S. government's official web portal to all federal, state and local government web resources and services.